sensor_id;sensor_type;location;lat;lon;timestamp;pressure;altitude;pressure_sealevel;temperature;humidity
51333;BME280;37417;48.118;11.734;2023-05-19T00:01:50;95884.56;;;8.14;100.00
51333;BME280;37417;48.118;11.734;2023-05-19T00:04:36;95884.25;;;8.09;100.00
51333;BME280;37417;48.118;11.734;2023-05-19T00:07:29;95878.38;;;8.15;100.00
51333;BME280;37417;48.118;11.734;2023-05-19T00:10:16;95885.44;;;7.99;100.00
51333;BME280;37417;48.118;11.734;2023-05-19T00:13:02;95878.75;;;8.04;100.00
51333;BME280;37417;48.118;11.734;2023-05-19T00:15:49;95871.47;;;7.92;100.00
51333;BME280;37417;48.118;11.734;2023-05-19T00:18:35;95873.63;;;7.88;100.00
51333;BME280;37417;48.118;11.734;2023-05-19T00:21:20;95865.19;;;7.86;100.00
51333;BME280;37417;48.118;11.734;2023-05-19T00:24:06;95870.19;;;7.96;100.00
51333;BME280;37417;48.118;11.734;2023-05-19T00:26:52;95865.19;;;7.86;100.00
51333;BME280;37417;48.118;11.734;2023-05-19T00:29:38;95859.63;;;7.97;100.00
51333;BME280;37417;48.118;11.734;2023-05-19T00:32:23;95858.00;;;7.96;100.00
51333;BME280;37417;48.118;11.734;2023-05-19T00:35:09;95853.03;;;7.86;100.00
51333;BME280;37417;48.118;11.734;2023-05-19T00:37:55;95856.44;;;7.87;100.00
51333;BME280;37417;48.118;11.734;2023-05-19T00:40:41;95847.34;;;7.83;100.00
51333;BME280;37417;48.118;11.734;2023-05-19T00:43:27;95848.47;;;7.88;100.00
51333;BME280;37417;48.118;11.734;2023-05-19T00:46:17;95854.47;;;7.89;100.00
51333;BME280;37417;48.118;11.734;2023-05-19T00:49:03;95846.50;;;7.91;100.00
51333;BME280;37417;48.118;11.734;2023-05-19T00:51:49;95842.78;;;7.93;100.00
51333;BME280;37417;48.118;11.734;2023-05-19T00:54:35;95847.31;;;7.91;100.00
51333;BME280;37417;48.118;11.734;2023-05-19T00:57:21;95840.66;;;7.88;100.00
51333;BME280;37417;48.118;11.734;2023-05-19T01:00:07;95837.91;;;7.90;100.00
51333;BME280;37417;48.118;11.734;2023-05-19T01:02:53;95834.84;;;7.86;100.00
51333;BME280;37417;48.118;11.734;2023-05-19T01:05:40;95837.31;;;7.80;100.00
51333;BME280;37417;48.118;11.734;2023-05-19T01:08:27;95830.47;;;7.79;100.00
51333;BME280;37417;48.118;11.734;2023-05-19T01:11:13;95839.41;;;7.76;100.00
51333;BME280;37417;48.118;11.734;2023-05-19T01:13:59;95839.25;;;7.78;100.00
51333;BME280;37417;48.118;11.734;2023-05-19T01:16:54;95845.09;;;7.80;100.00
51333;BME280;37417;48.118;11.734;2023-05-19T01:26:23;95843.13;;;7.82;100.00
51333;BME280;37417;48.118;11.734;2023-05-19T01:32:24;95844.13;;;7.73;100.00
51333;BME280;37417;48.118;11.734;2023-05-19T01:35:11;95839.78;;;7.65;100.00
51333;BME280;37417;48.118;11.734;2023-05-19T01:37:59;95846.72;;;7.73;100.00
51333;BME280;37417;48.118;11.734;2023-05-19T01:40:46;95848.03;;;7.69;100.00
51333;BME280;37417;48.118;11.734;2023-05-19T01:43:32;95851.31;;;7.63;100.00
51333;BME280;37417;48.118;11.734;2023-05-19T01:46:18;95844.50;;;7.62;100.00
51333;BME280;37417;48.118;11.734;2023-05-19T01:49:05;95853.91;;;7.63;100.00
51333;BME280;37417;48.118;11.734;2023-05-19T01:51:52;95850.16;;;7.73;100.00
51333;BME280;37417;48.118;11.734;2023-05-19T01:54:37;95853.06;;;7.70;100.00
51333;BME280;37417;48.118;11.734;2023-05-19T02:00:55;95852.59;;;7.67;100.00
51333;BME280;37417;48.118;11.734;2023-05-19T02:07:00;95850.00;;;7.67;100.00
51333;BME280;37417;48.118;11.734;2023-05-19T02:10:09;95846.25;;;7.69;100.00
51333;BME280;37417;48.118;11.734;2023-05-19T02:12:58;95846.75;;;7.65;100.00
51333;BME280;37417;48.118;11.734;2023-05-19T02:15:45;95849.66;;;7.70;100.00
51333;BME280;37417;48.118;11.734;2023-05-19T02:18:32;95848.38;;;7.66;100.00
51333;BME280;37417;48.118;11.734;2023-05-19T02:21:19;95844.47;;;7.70;100.00
51333;BME280;37417;48.118;11.734;2023-05-19T02:24:05;95846.56;;;7.66;100.00
51333;BME280;37417;48.118;11.734;2023-05-19T02:26:52;95842.50;;;7.72;100.00
51333;BME280;37417;48.118;11.734;2023-05-19T02:29:38;95836.03;;;7.68;100.00
51333;BME280;37417;48.118;11.734;2023-05-19T02:32:24;95833.09;;;7.71;100.00
51333;BME280;37417;48.118;11.734;2023-05-19T02:35:09;95832.94;;;7.72;100.00
51333;BME280;37417;48.118;11.734;2023-05-19T02:37:55;95824.19;;;7.65;100.00
51333;BME280;37417;48.118;11.734;2023-05-19T02:40:40;95825.34;;;7.63;100.00
51333;BME280;37417;48.118;11.734;2023-05-19T02:43:26;95828.75;;;7.63;100.00
51333;BME280;37417;48.118;11.734;2023-05-19T02:46:14;95831.66;;;7.68;100.00
51333;BME280;37417;48.118;11.734;2023-05-19T02:49:00;95827.94;;;7.63;100.00
51333;BME280;37417;48.118;11.734;2023-05-19T02:51:46;95830.22;;;7.57;100.00
51333;BME280;37417;48.118;11.734;2023-05-19T02:54:33;95831.25;;;7.48;100.00
51333;BME280;37417;48.118;11.734;2023-05-19T02:57:18;95832.56;;;7.36;100.00
51333;BME280;37417;48.118;11.734;2023-05-19T03:00:04;95823.63;;;7.39;100.00
51333;BME280;37417;48.118;11.734;2023-05-19T03:02:51;95825.25;;;7.40;100.00
51333;BME280;37417;48.118;11.734;2023-05-19T03:05:37;95822.19;;;7.36;100.00
51333;BME280;37417;48.118;11.734;2023-05-19T03:08:23;95815.03;;;7.38;100.00
51333;BME280;37417;48.118;11.734;2023-05-19T03:11:08;95819.41;;;7.38;100.00
51333;BME280;37417;48.118;11.734;2023-05-19T03:13:54;95815.69;;;7.32;100.00
51333;BME280;37417;48.118;11.734;2023-05-19T03:16:40;95828.84;;;7.30;100.00
51333;BME280;37417;48.118;11.734;2023-05-19T03:19:26;95821.03;;;7.39;100.00
51333;BME280;37417;48.118;11.734;2023-05-19T03:22:12;95824.13;;;7.42;100.00
51333;BME280;37417;48.118;11.734;2023-05-19T03:24:57;95822.16;;;7.44;100.00
51333;BME280;37417;48.118;11.734;2023-05-19T03:27:43;95827.84;;;7.48;100.00
51333;BME280;37417;48.118;11.734;2023-05-19T03:30:29;95824.28;;;7.41;100.00
51333;BME280;37417;48.118;11.734;2023-05-19T03:33:15;95821.16;;;7.45;100.00
51333;BME280;37417;48.118;11.734;2023-05-19T03:36:01;95823.44;;;7.48;100.00
51333;BME280;37417;48.118;11.734;2023-05-19T03:38:48;95820.03;;;7.40;100.00
51333;BME280;37417;48.118;11.734;2023-05-19T03:41:34;95820.69;;;7.50;100.00
51333;BME280;37417;48.118;11.734;2023-05-19T03:44:19;95816.97;;;7.44;100.00
51333;BME280;37417;48.118;11.734;2023-05-19T03:47:05;95810.44;;;7.56;100.00
51333;BME280;37417;48.118;11.734;2023-05-19T03:49:51;95815.00;;;7.54;100.00
51333;BME280;37417;48.118;11.734;2023-05-19T03:52:37;95814.81;;;7.56;100.00
51333;BME280;37417;48.118;11.734;2023-05-19T03:55:24;95815.94;;;7.62;100.00
51333;BME280;37417;48.118;11.734;2023-05-19T03:58:10;95822.94;;;7.53;100.00
51333;BME280;37417;48.118;11.734;2023-05-19T04:00:55;95824.38;;;7.64;100.00
51333;BME280;37417;48.118;11.734;2023-05-19T04:03:41;95821.72;;;7.72;100.00
51333;BME280;37417;48.118;11.734;2023-05-19T04:06:27;95824.84;;;7.67;100.00
51333;BME280;37417;48.118;11.734;2023-05-19T04:09:13;95818.94;;;7.81;100.00
51333;BME280;37417;48.118;11.734;2023-05-19T04:11:59;95815.84;;;7.86;100.00
51333;BME280;37417;48.118;11.734;2023-05-19T04:14:45;95816.69;;;7.78;100.00
51333;BME280;37417;48.118;11.734;2023-05-19T04:17:31;95816.13;;;7.91;100.00
51333;BME280;37417;48.118;11.734;2023-05-19T04:20:17;95816.66;;;7.86;100.00
51333;BME280;37417;48.118;11.734;2023-05-19T04:23:02;95805.06;;;7.97;100.00
51333;BME280;37417;48.118;11.734;2023-05-19T04:25:48;95815.19;;;7.92;100.00
51333;BME280;37417;48.118;11.734;2023-05-19T04:28:34;95821.31;;;7.91;100.00
51333;BME280;37417;48.118;11.734;2023-05-19T04:31:23;95819.03;;;7.96;100.00
51333;BME280;37417;48.118;11.734;2023-05-19T04:34:09;95822.81;;;8.17;100.00
51333;BME280;37417;48.118;11.734;2023-05-19T04:36:55;95825.66;;;8.30;100.00
51333;BME280;37417;48.118;11.734;2023-05-19T04:39:41;95818.50;;;8.40;100.00
51333;BME280;37417;48.118;11.734;2023-05-19T04:42:28;95824.25;;;8.58;100.00
51333;BME280;37417;48.118;11.734;2023-05-19T04:45:15;95820.41;;;8.69;100.00
51333;BME280;37417;48.118;11.734;2023-05-19T04:48:00;95823.53;;;8.64;100.00
51333;BME280;37417;48.118;11.734;2023-05-19T04:50:46;95817.44;;;8.95;100.00
51333;BME280;37417;48.118;11.734;2023-05-19T04:53:33;95820.50;;;8.99;100.00
51333;BME280;37417;48.118;11.734;2023-05-19T04:56:19;95813.41;;;9.07;100.00
51333;BME280;37417;48.118;11.734;2023-05-19T04:59:04;95808.69;;;9.26;100.00
51333;BME280;37417;48.118;11.734;2023-05-19T05:01:51;95803.88;;;9.37;100.00
51333;BME280;37417;48.118;11.734;2023-05-19T05:04:36;95805.50;;;9.68;100.00
51333;BME280;37417;48.118;11.734;2023-05-19T05:07:24;95793.16;;;9.76;100.00
51333;BME280;37417;48.118;11.734;2023-05-19T05:10:10;95792.00;;;10.15;100.00
51333;BME280;37417;48.118;11.734;2023-05-19T05:12:56;95780.94;;;11.20;100.00
51333;BME280;37417;48.118;11.734;2023-05-19T05:15:42;95785.56;;;11.53;100.00
51333;BME280;37417;48.118;11.734;2023-05-19T05:18:28;95786.97;;;12.51;100.00
51333;BME280;37417;48.118;11.734;2023-05-19T05:21:14;95788.78;;;13.43;100.00
51333;BME280;37417;48.118;11.734;2023-05-19T05:24:00;95778.53;;;12.89;100.00
51333;BME280;37417;48.118;11.734;2023-05-19T05:26:46;95773.88;;;12.58;100.00
51333;BME280;37417;48.118;11.734;2023-05-19T05:29:31;95778.31;;;12.51;100.00
51333;BME280;37417;48.118;11.734;2023-05-19T05:32:17;95772.47;;;12.68;100.00
51333;BME280;37417;48.118;11.734;2023-05-19T05:35:03;95776.94;;;13.27;100.00
51333;BME280;37417;48.118;11.734;2023-05-19T05:37:48;95768.09;;;13.93;100.00
51333;BME280;37417;48.118;11.734;2023-05-19T05:40:34;95764.06;;;14.67;100.00
51333;BME280;37417;48.118;11.734;2023-05-19T05:43:20;95772.25;;;14.52;100.00
51333;BME280;37417;48.118;11.734;2023-05-19T05:46:05;95774.69;;;14.79;100.00
51333;BME280;37417;48.118;11.734;2023-05-19T05:48:51;95788.72;;;13.70;100.00
51333;BME280;37417;48.118;11.734;2023-05-19T05:51:38;95791.38;;;13.63;100.00
51333;BME280;37417;48.118;11.734;2023-05-19T05:54:23;95788.59;;;15.54;99.10
51333;BME280;37417;48.118;11.734;2023-05-19T05:57:10;95785.00;;;15.74;97.66
51333;BME280;37417;48.118;11.734;2023-05-19T05:59:56;95773.00;;;15.16;98.68
51333;BME280;37417;48.118;11.734;2023-05-19T06:02:44;95784.72;;;14.63;100.00
51333;BME280;37417;48.118;11.734;2023-05-19T06:05:31;95772.13;;;15.22;99.69
51333;BME280;37417;48.118;11.734;2023-05-19T06:08:17;95776.56;;;14.72;100.00
51333;BME280;37417;48.118;11.734;2023-05-19T06:11:03;95771.81;;;16.40;90.53
51333;BME280;37417;48.118;11.734;2023-05-19T06:13:53;95774.19;;;15.82;90.91
51333;BME280;37417;48.118;11.734;2023-05-19T06:16:39;95777.13;;;14.42;94.81
51333;BME280;37417;48.118;11.734;2023-05-19T06:19:24;95779.06;;;14.60;98.16
51333;BME280;37417;48.118;11.734;2023-05-19T06:22:10;95784.00;;;13.20;100.00
51333;BME280;37417;48.118;11.734;2023-05-19T06:24:56;95780.53;;;13.26;100.00
51333;BME280;37417;48.118;11.734;2023-05-19T06:27:41;95787.47;;;14.37;100.00
51333;BME280;37417;48.118;11.734;2023-05-19T06:30:27;95775.03;;;15.14;98.51
51333;BME280;37417;48.118;11.734;2023-05-19T06:33:13;95776.06;;;16.11;94.51
51333;BME280;37417;48.118;11.734;2023-05-19T06:35:58;95772.81;;;15.54;94.79
51333;BME280;37417;48.118;11.734;2023-05-19T06:38:44;95770.03;;;14.81;96.95
51333;BME280;37417;48.118;11.734;2023-05-19T06:41:30;95777.16;;;14.35;100.00
51333;BME280;37417;48.118;11.734;2023-05-19T06:44:15;95779.72;;;14.11;100.00
51333;BME280;37417;48.118;11.734;2023-05-19T06:47:01;95786.75;;;14.55;100.00
51333;BME280;37417;48.118;11.734;2023-05-19T06:49:46;95779.44;;;14.95;100.00
51333;BME280;37417;48.118;11.734;2023-05-19T06:52:39;95776.16;;;16.35;90.20
51333;BME280;37417;48.118;11.734;2023-05-19T06:55:25;95773.81;;;16.87;88.34
51333;BME280;37417;48.118;11.734;2023-05-19T06:58:11;95770.69;;;19.09;75.91
51333;BME280;37417;48.118;11.734;2023-05-19T07:00:56;95766.59;;;18.68;73.32
51333;BME280;37417;48.118;11.734;2023-05-19T07:03:42;95779.47;;;17.14;80.83
51333;BME280;37417;48.118;11.734;2023-05-19T07:06:28;95777.50;;;17.68;76.00
51333;BME280;37417;48.118;11.734;2023-05-19T07:09:13;95777.03;;;16.29;83.21
51333;BME280;37417;48.118;11.734;2023-05-19T07:11:59;95778.69;;;17.60;77.96
51333;BME280;37417;48.118;11.734;2023-05-19T07:14:45;95779.72;;;17.47;75.17
51333;BME280;37417;48.118;11.734;2023-05-19T07:17:31;95776.75;;;17.20;76.63
51333;BME280;37417;48.118;11.734;2023-05-19T07:20:17;95776.41;;;18.73;73.77
51333;BME280;37417;48.118;11.734;2023-05-19T07:23:02;95771.44;;;18.48;68.17
51333;BME280;37417;48.118;11.734;2023-05-19T07:25:53;95773.59;;;17.94;71.83
51333;BME280;37417;48.118;11.734;2023-05-19T07:28:39;95776.56;;;16.02;75.93
51333;BME280;37417;48.118;11.734;2023-05-19T07:31:26;95768.81;;;14.83;91.92
51333;BME280;37417;48.118;11.734;2023-05-19T07:34:12;95775.91;;;14.51;97.01
51333;BME280;37417;48.118;11.734;2023-05-19T07:36:58;95772.34;;;15.21;97.41
51333;BME280;37417;48.118;11.734;2023-05-19T07:39:43;95777.03;;;15.80;89.71
51333;BME280;37417;48.118;11.734;2023-05-19T07:42:29;95772.66;;;15.06;90.04
51333;BME280;37417;48.118;11.734;2023-05-19T07:45:15;95776.56;;;14.72;97.77
51333;BME280;37417;48.118;11.734;2023-05-19T07:48:01;95770.03;;;14.81;97.91
51333;BME280;37417;48.118;11.734;2023-05-19T07:50:49;95771.09;;;14.35;96.94
51333;BME280;37417;48.118;11.734;2023-05-19T07:53:35;95778.72;;;14.12;100.00
51333;BME280;37417;48.118;11.734;2023-05-19T07:56:21;95774.09;;;14.45;100.00
51333;BME280;37417;48.118;11.734;2023-05-19T07:59:07;95771.66;;;14.12;100.00
51333;BME280;37417;48.118;11.734;2023-05-19T08:01:54;95772.25;;;14.07;100.00
51333;BME280;37417;48.118;11.734;2023-05-19T08:04:39;95769.03;;;13.47;100.00
51333;BME280;37417;48.118;11.734;2023-05-19T08:07:25;95768.28;;;13.20;100.00
51333;BME280;37417;48.118;11.734;2023-05-19T08:10:11;95777.53;;;13.03;100.00
51333;BME280;37417;48.118;11.734;2023-05-19T08:12:56;95776.72;;;13.16;100.00
51333;BME280;37417;48.118;11.734;2023-05-19T08:15:42;95784.78;;;13.41;100.00
51333;BME280;37417;48.118;11.734;2023-05-19T08:18:27;95780.75;;;12.72;100.00
51333;BME280;37417;48.118;11.734;2023-05-19T08:21:13;95772.06;;;12.58;100.00
51333;BME280;37417;48.118;11.734;2023-05-19T08:24:00;95773.50;;;12.87;100.00
51333;BME280;37417;48.118;11.734;2023-05-19T08:26:46;95777.13;;;12.86;100.00
51333;BME280;37417;48.118;11.734;2023-05-19T08:29:31;95775.13;;;12.88;100.00
51333;BME280;37417;48.118;11.734;2023-05-19T08:32:17;95778.13;;;13.25;100.00
51333;BME280;37417;48.118;11.734;2023-05-19T08:35:03;95774.50;;;13.13;100.00
51333;BME280;37417;48.118;11.734;2023-05-19T08:37:48;95766.06;;;12.78;100.00
51333;BME280;37417;48.118;11.734;2023-05-19T08:40:36;95776.69;;;12.43;100.00
51333;BME280;37417;48.118;11.734;2023-05-19T08:43:22;95769.47;;;12.58;100.00
51333;BME280;37417;48.118;11.734;2023-05-19T08:46:10;95764.44;;;12.96;100.00
51333;BME280;37417;48.118;11.734;2023-05-19T08:49:01;95766.44;;;12.81;100.00
51333;BME280;37417;48.118;11.734;2023-05-19T08:52:08;95762.03;;;12.88;100.00
51333;BME280;37417;48.118;11.734;2023-05-19T08:55:04;95769.25;;;12.53;100.00
51333;BME280;37417;48.118;11.734;2023-05-19T08:57:55;95776.59;;;12.16;100.00
51333;BME280;37417;48.118;11.734;2023-05-19T09:00:42;95773.94;;;12.03;100.00
51333;BME280;37417;48.118;11.734;2023-05-19T09:03:28;95769.59;;;11.76;100.00
51333;BME280;37417;48.118;11.734;2023-05-19T09:06:14;95771.41;;;12.30;100.00
51333;BME280;37417;48.118;11.734;2023-05-19T09:09:00;95768.72;;;12.10;100.00
51333;BME280;37417;48.118;11.734;2023-05-19T09:11:45;95768.19;;;12.34;100.00
51333;BME280;37417;48.118;11.734;2023-05-19T09:14:31;95769.47;;;12.91;100.00
51333;BME280;37417;48.118;11.734;2023-05-19T09:17:17;95771.69;;;13.27;100.00
51333;BME280;37417;48.118;11.734;2023-05-19T09:20:04;95769.00;;;13.61;100.00
51333;BME280;37417;48.118;11.734;2023-05-19T09:22:55;95776.31;;;13.25;100.00
51333;BME280;37417;48.118;11.734;2023-05-19T09:25:50;95767.47;;;13.98;100.00
51333;BME280;37417;48.118;11.734;2023-05-19T09:28:36;95762.19;;;13.53;100.00
51333;BME280;37417;48.118;11.734;2023-05-19T09:31:22;95767.84;;;13.43;100.00
51333;BME280;37417;48.118;11.734;2023-05-19T09:34:12;95765.03;;;13.32;100.00
51333;BME280;37417;48.118;11.734;2023-05-19T09:36:57;95765.25;;;12.97;100.00
51333;BME280;37417;48.118;11.734;2023-05-19T09:39:44;95763.03;;;13.14;100.00
51333;BME280;37417;48.118;11.734;2023-05-19T09:42:36;95757.59;;;12.82;100.00
51333;BME280;37417;48.118;11.734;2023-05-19T09:45:25;95747.31;;;12.81;100.00
51333;BME280;37417;48.118;11.734;2023-05-19T09:48:13;95751.34;;;12.43;100.00
51333;BME280;37417;48.118;11.734;2023-05-19T09:51:00;95756.03;;;11.93;100.00
51333;BME280;37417;48.118;11.734;2023-05-19T09:53:46;95755.63;;;11.97;100.00
51333;BME280;37417;48.118;11.734;2023-05-19T09:56:36;95758.84;;;11.92;100.00
51333;BME280;37417;48.118;11.734;2023-05-19T09:59:24;95756.28;;;12.12;100.00
51333;BME280;37417;48.118;11.734;2023-05-19T10:02:14;95758.16;;;12.44;100.00
51333;BME280;37417;48.118;11.734;2023-05-19T10:05:02;95748.53;;;12.91;100.00
51333;BME280;37417;48.118;11.734;2023-05-19T10:07:50;95749.75;;;13.22;100.00
51333;BME280;37417;48.118;11.734;2023-05-19T10:10:37;95748.69;;;13.43;100.00
51333;BME280;37417;48.118;11.734;2023-05-19T10:13:23;95743.47;;;13.94;100.00
51333;BME280;37417;48.118;11.734;2023-05-19T10:16:09;95750.44;;;13.69;100.00
51333;BME280;37417;48.118;11.734;2023-05-19T10:18:57;95751.41;;;14.19;100.00
51333;BME280;37417;48.118;11.734;2023-05-19T10:21:43;95754.06;;;13.68;100.00
51333;BME280;37417;48.118;11.734;2023-05-19T10:24:29;95744.63;;;13.53;100.00
51333;BME280;37417;48.118;11.734;2023-05-19T10:27:16;95747.97;;;13.80;100.00
51333;BME280;37417;48.118;11.734;2023-05-19T10:30:07;95757.31;;;13.57;100.00
51333;BME280;37417;48.118;11.734;2023-05-19T10:32:55;95752.75;;;13.25;100.00
51333;BME280;37417;48.118;11.734;2023-05-19T10:41:56;95747.13;;;13.87;100.00
51333;BME280;37417;48.118;11.734;2023-05-19T10:44:58;95743.09;;;13.84;100.00
51333;BME280;37417;48.118;11.734;2023-05-19T10:47:45;95740.03;;;14.32;100.00
51333;BME280;37417;48.118;11.734;2023-05-19T10:50:36;95735.06;;;14.55;100.00
51333;BME280;37417;48.118;11.734;2023-05-19T10:53:26;95738.91;;;14.84;100.00
51333;BME280;37417;48.118;11.734;2023-05-19T10:56:30;95739.88;;;14.27;100.00
51333;BME280;37417;48.118;11.734;2023-05-19T10:59:32;95730.50;;;14.44;100.00
51333;BME280;37417;48.118;11.734;2023-05-19T11:02:36;95733.66;;;13.76;100.00
51333;BME280;37417;48.118;11.734;2023-05-19T11:05:29;95739.63;;;13.12;100.00
51333;BME280;37417;48.118;11.734;2023-05-19T11:08:15;95739.66;;;12.79;100.00
51333;BME280;37417;48.118;11.734;2023-05-19T11:11:15;95734.22;;;12.74;100.00
51333;BME280;37417;48.118;11.734;2023-05-19T11:14:02;95739.47;;;13.20;100.00
51333;BME280;37417;48.118;11.734;2023-05-19T11:16:49;95738.41;;;13.48;100.00
51333;BME280;37417;48.118;11.734;2023-05-19T11:19:35;95733.47;;;13.71;100.00
51333;BME280;37417;48.118;11.734;2023-05-19T11:22:23;95733.56;;;14.34;100.00
51333;BME280;37417;48.118;11.734;2023-05-19T11:25:10;95731.34;;;14.38;100.00
51333;BME280;37417;48.118;11.734;2023-05-19T11:27:56;95721.31;;;15.10;100.00
51333;BME280;37417;48.118;11.734;2023-05-19T11:30:43;95729.75;;;14.69;100.00
51333;BME280;37417;48.118;11.734;2023-05-19T11:33:31;95721.31;;;14.85;100.00
51333;BME280;37417;48.118;11.734;2023-05-19T11:36:17;95722.50;;;14.64;100.00
51333;BME280;37417;48.118;11.734;2023-05-19T11:39:04;95720.47;;;15.34;100.00
51333;BME280;37417;48.118;11.734;2023-05-19T11:41:50;95731.28;;;15.81;100.00
51333;BME280;37417;48.118;11.734;2023-05-19T11:44:36;95728.91;;;16.10;100.00
51333;BME280;37417;48.118;11.734;2023-05-19T11:47:22;95738.44;;;16.22;100.00
51333;BME280;37417;48.118;11.734;2023-05-19T11:50:10;95739.00;;;15.58;100.00
51333;BME280;37417;48.118;11.734;2023-05-19T11:53:01;95741.63;;;14.96;100.00
51333;BME280;37417;48.118;11.734;2023-05-19T11:55:47;95736.50;;;14.83;100.00
51333;BME280;37417;48.118;11.734;2023-05-19T11:58:33;95737.94;;;15.04;100.00
51333;BME280;37417;48.118;11.734;2023-05-19T12:01:22;95740.84;;;14.96;100.00
51333;BME280;37417;48.118;11.734;2023-05-19T12:04:10;95733.06;;;14.57;100.00
51333;BME280;37417;48.118;11.734;2023-05-19T12:06:55;95733.69;;;14.78;100.00
51333;BME280;37417;48.118;11.734;2023-05-19T12:09:41;95727.91;;;14.38;100.00
51333;BME280;37417;48.118;11.734;2023-05-19T12:12:28;95732.44;;;14.24;100.00
51333;BME280;37417;48.118;11.734;2023-05-19T12:15:14;95742.13;;;14.17;100.00
51333;BME280;37417;48.118;11.734;2023-05-19T12:18:01;95740.97;;;14.13;100.00
51333;BME280;37417;48.118;11.734;2023-05-19T12:20:47;95737.69;;;13.79;100.00
51333;BME280;37417;48.118;11.734;2023-05-19T12:23:33;95737.91;;;13.71;100.00
51333;BME280;37417;48.118;11.734;2023-05-19T12:26:20;95741.63;;;13.50;100.00
51333;BME280;37417;48.118;11.734;2023-05-19T12:29:06;95740.84;;;13.30;100.00
51333;BME280;37417;48.118;11.734;2023-05-19T12:31:52;95743.03;;;13.39;100.00
51333;BME280;37417;48.118;11.734;2023-05-19T12:34:38;95726.66;;;13.64;100.00
51333;BME280;37417;48.118;11.734;2023-05-19T12:37:27;95734.28;;;13.65;100.00
51333;BME280;37417;48.118;11.734;2023-05-19T12:40:15;95734.09;;;13.73;100.00
51333;BME280;37417;48.118;11.734;2023-05-19T12:43:01;95730.09;;;13.58;100.00
51333;BME280;37417;48.118;11.734;2023-05-19T12:45:47;95739.03;;;13.95;100.00
51333;BME280;37417;48.118;11.734;2023-05-19T12:48:33;95740.44;;;13.91;100.00
51333;BME280;37417;48.118;11.734;2023-05-19T12:51:19;95735.78;;;13.99;100.00
51333;BME280;37417;48.118;11.734;2023-05-19T12:54:05;95729.34;;;14.65;100.00
51333;BME280;37417;48.118;11.734;2023-05-19T12:56:51;95735.34;;;14.97;100.00
51333;BME280;37417;48.118;11.734;2023-05-19T12:59:36;95727.91;;;15.92;100.00
51333;BME280;37417;48.118;11.734;2023-05-19T13:02:23;95719.66;;;15.89;99.63
51333;BME280;37417;48.118;11.734;2023-05-19T13:05:08;95718.38;;;16.40;100.00
51333;BME280;37417;48.118;11.734;2023-05-19T13:07:59;95713.59;;;16.60;100.00
51333;BME280;37417;48.118;11.734;2023-05-19T13:10:46;95715.03;;;17.45;96.86
51333;BME280;37417;48.118;11.734;2023-05-19T13:13:34;95714.03;;;18.26;90.05
51333;BME280;37417;48.118;11.734;2023-05-19T13:16:19;95704.00;;;19.63;80.24
51333;BME280;37417;48.118;11.734;2023-05-19T13:19:05;95700.06;;;20.36;76.62
51333;BME280;37417;48.118;11.734;2023-05-19T13:21:50;95707.19;;;22.78;65.21
51333;BME280;37417;48.118;11.734;2023-05-19T13:24:36;95696.00;;;24.17;61.75
51333;BME280;37417;48.118;11.734;2023-05-19T13:27:22;95693.13;;;24.03;57.19
51333;BME280;37417;48.118;11.734;2023-05-19T13:30:09;95694.91;;;23.53;53.88
51333;BME280;37417;48.118;11.734;2023-05-19T13:32:55;95696.03;;;23.21;56.62
51333;BME280;37417;48.118;11.734;2023-05-19T13:35:41;95689.72;;;24.81;51.98
51333;BME280;37417;48.118;11.734;2023-05-19T13:38:27;95686.03;;;24.38;52.69
51333;BME280;37417;48.118;11.734;2023-05-19T13:41:14;95693.25;;;23.77;51.70
51333;BME280;37417;48.118;11.734;2023-05-19T13:44:00;95686.69;;;22.48;54.07
51333;BME280;37417;48.118;11.734;2023-05-19T13:46:45;95685.81;;;21.44;57.61
51333;BME280;37417;48.118;11.734;2023-05-19T13:49:31;95683.13;;;21.33;58.69
51333;BME280;37417;48.118;11.734;2023-05-19T13:52:19;95671.72;;;20.64;59.73
51333;BME280;37417;48.118;11.734;2023-05-19T13:55:05;95671.31;;;18.46;70.82
51333;BME280;37417;48.118;11.734;2023-05-19T13:57:52;95666.63;;;17.51;76.68
51333;BME280;37417;48.118;11.734;2023-05-19T14:00:37;95663.25;;;17.91;78.70
51333;BME280;37417;48.118;11.734;2023-05-19T14:03:24;95659.91;;;18.12;73.38
51333;BME280;37417;48.118;11.734;2023-05-19T14:06:10;95660.41;;;16.93;78.56
51333;BME280;37417;48.118;11.734;2023-05-19T14:08:56;95671.97;;;17.16;83.14
51333;BME280;37417;48.118;11.734;2023-05-19T14:11:42;95667.78;;;17.95;81.28
51333;BME280;37417;48.118;11.734;2023-05-19T14:14:28;95656.97;;;18.87;77.32
51333;BME280;37417;48.118;11.734;2023-05-19T14:17:14;95659.59;;;19.65;75.16
51333;BME280;37417;48.118;11.734;2023-05-19T14:19:59;95663.34;;;20.18;70.53
51333;BME280;37417;48.118;11.734;2023-05-19T14:22:46;95658.19;;;20.33;68.51
51333;BME280;37417;48.118;11.734;2023-05-19T14:25:31;95653.09;;;18.61;73.51
51333;BME280;37417;48.118;11.734;2023-05-19T14:28:17;95652.69;;;18.53;73.49
51333;BME280;37417;48.118;11.734;2023-05-19T14:31:03;95656.63;;;17.76;77.71
51333;BME280;37417;48.118;11.734;2023-05-19T14:33:50;95658.66;;;17.22;86.36
51333;BME280;37417;48.118;11.734;2023-05-19T14:36:36;95646.84;;;16.43;90.61
51333;BME280;37417;48.118;11.734;2023-05-19T14:39:24;95652.94;;;15.83;97.53
51333;BME280;37417;48.118;11.734;2023-05-19T14:42:10;95649.59;;;15.76;98.17
51333;BME280;37417;48.118;11.734;2023-05-19T14:44:56;95653.31;;;15.87;99.81
51333;BME280;37417;48.118;11.734;2023-05-19T14:47:41;95646.31;;;15.81;100.00
51333;BME280;37417;48.118;11.734;2023-05-19T14:50:27;95649.59;;;16.36;98.47